createdAt,value
2022-12-25T00:00:10.341Z,9.6
2022-12-25T00:01:50.115Z,9.6
2022-12-25T00:03:29.891Z,9.58
2022-12-25T00:05:09.690Z,9.58
2022-12-25T00:06:49.416Z,9.59
2022-12-25T00:08:29.245Z,9.59
2022-12-25T00:10:08.952Z,9.56
2022-12-25T00:11:48.767Z,9.57
2022-12-25T00:13:28.558Z,9.55
2022-12-25T00:15:08.240Z,9.55
2022-12-25T00:16:48.072Z,9.55
2022-12-25T00:18:27.792Z,9.55
2022-12-25T00:20:07.588Z,9.53
2022-12-25T00:21:47.319Z,9.53
2022-12-25T00:23:27.102Z,9.52
2022-12-25T00:25:06.853Z,9.51
2022-12-25T00:26:46.653Z,9.51
2022-12-25T00:28:26.412Z,9.51
2022-12-25T00:30:06.158Z,9.47
2022-12-25T00:31:45.941Z,9.5
2022-12-25T00:33:25.699Z,9.49
2022-12-25T00:35:05.465Z,9.47
2022-12-25T00:36:45.228Z,9.46
2022-12-25T00:38:24.996Z,9.45
2022-12-25T00:40:04.762Z,9.43
2022-12-25T00:41:44.583Z,9.42
2022-12-25T00:43:24.297Z,9.42
2022-12-25T00:45:04.069Z,9.42
2022-12-25T00:46:43.843Z,9.41
2022-12-25T00:48:23.589Z,9.41
2022-12-25T00:50:03.555Z,9.39
2022-12-25T00:51:43.134Z,9.37
2022-12-25T00:53:22.899Z,9.38
2022-12-25T00:55:02.731Z,9.35
2022-12-25T00:56:42.425Z,9.34
2022-12-25T00:58:22.202Z,9.33
2022-12-25T01:00:01.962Z,9.33
2022-12-25T01:01:41.740Z,9.34
2022-12-25T01:03:21.507Z,9.32
2022-12-25T01:05:01.276Z,9.31
2022-12-25T01:06:41.033Z,9.29
2022-12-25T01:08:20.828Z,9.28
2022-12-25T01:10:00.585Z,9.27
2022-12-25T01:11:40.330Z,9.26
2022-12-25T01:13:20.116Z,9.24
2022-12-25T01:14:59.886Z,9.22
2022-12-25T01:16:39.630Z,9.22
2022-12-25T01:18:19.416Z,9.2
2022-12-25T01:19:59.201Z,9.2
2022-12-25T01:21:38.978Z,9.17
2022-12-25T01:23:18.707Z,9.14
2022-12-25T01:24:58.481Z,9.14
2022-12-25T01:26:38.244Z,9.14
2022-12-25T01:28:18.049Z,9.12
2022-12-25T01:29:57.785Z,9.1
2022-12-25T01:31:37.567Z,9.12
2022-12-25T01:33:17.312Z,9.08
2022-12-25T01:34:57.085Z,9.07
2022-12-25T01:36:36.843Z,9.06
2022-12-25T01:38:16.617Z,9.04
2022-12-25T01:39:56.394Z,9.05
2022-12-25T01:41:36.205Z,9.03
2022-12-25T01:43:15.907Z,9.01
2022-12-25T01:44:55.689Z,9.01
2022-12-25T01:46:35.455Z,8.97
2022-12-25T01:48:15.249Z,8.96
2022-12-25T01:49:54.988Z,8.95
2022-12-25T01:51:34.763Z,8.96
2022-12-25T01:53:14.528Z,8.92
2022-12-25T01:54:54.297Z,8.91
2022-12-25T01:56:34.078Z,8.89
2022-12-25T01:58:13.829Z,8.89
2022-12-25T01:59:53.589Z,8.87
2022-12-25T02:01:33.355Z,8.85
2022-12-25T02:03:13.136Z,8.85
2022-12-25T02:04:52.957Z,8.82
2022-12-25T02:06:32.651Z,8.82
2022-12-25T02:08:12.425Z,8.8
2022-12-25T02:09:52.182Z,8.78
2022-12-25T02:11:31.988Z,8.77
2022-12-25T02:13:11.733Z,8.76
2022-12-25T02:14:51.496Z,8.74
2022-12-25T02:16:31.287Z,8.72
2022-12-25T02:18:11.028Z,8.7
2022-12-25T02:19:50.797Z,8.71
2022-12-25T02:21:30.563Z,8.68
2022-12-25T02:23:10.341Z,8.64
2022-12-25T02:24:50.102Z,8.64
2022-12-25T02:26:29.864Z,8.6
2022-12-25T02:28:09.686Z,8.59
2022-12-25T02:29:49.398Z,8.6
2022-12-25T02:31:29.187Z,8.59
2022-12-25T02:33:08.932Z,8.55
2022-12-25T02:34:48.715Z,8.54
2022-12-25T02:36:28.473Z,8.52
2022-12-25T02:38:08.238Z,8.5
2022-12-25T02:39:48.029Z,8.47
2022-12-25T02:41:27.779Z,8.47
2022-12-25T02:43:07.550Z,8.46
2022-12-25T02:44:47.314Z,8.45
2022-12-25T02:46:27.080Z,8.42
2022-12-25T02:48:06.833Z,8.42
2022-12-25T02:49:46.601Z,8.37
2022-12-25T02:51:26.380Z,8.37
2022-12-25T02:53:06.154Z,8.35
2022-12-25T02:54:45.921Z,8.35
2022-12-25T02:56:25.680Z,8.32
2022-12-25T02:58:05.451Z,8.3
2022-12-25T02:59:45.690Z,8.29
2022-12-25T03:01:24.971Z,8.27
2022-12-25T03:03:04.749Z,8.24
2022-12-25T03:04:44.595Z,8.22
2022-12-25T03:06:24.272Z,8.18
2022-12-25T03:08:04.085Z,8.18
2022-12-25T03:09:43.805Z,8.18
2022-12-25T03:11:23.586Z,8.14
2022-12-25T03:13:03.358Z,8.16
2022-12-25T03:14:43.124Z,8.12
2022-12-25T03:16:22.881Z,8.12
2022-12-25T03:18:02.655Z,8.12
2022-12-25T03:19:42.424Z,8.1
2022-12-25T03:21:22.190Z,8.06
2022-12-25T03:23:01.957Z,8.07
2022-12-25T03:24:41.713Z,8.06
2022-12-25T03:26:21.509Z,8.04
2022-12-25T03:28:01.270Z,8.02
2022-12-25T03:29:41.037Z,8.01
2022-12-25T03:31:20.810Z,7.97
2022-12-25T03:33:00.559Z,7.98
2022-12-25T03:34:40.335Z,7.95
2022-12-25T03:36:20.115Z,7.95
2022-12-25T03:37:59.878Z,7.93
2022-12-25T03:39:39.625Z,7.89
2022-12-25T03:41:19.407Z,7.9
2022-12-25T03:42:59.168Z,7.86
2022-12-25T03:44:38.931Z,7.85
2022-12-25T03:46:18.705Z,7.85
2022-12-25T03:47:58.486Z,7.85
2022-12-25T03:49:38.252Z,7.8
2022-12-25T03:51:17.997Z,7.8
2022-12-25T03:52:57.769Z,7.8
2022-12-25T03:54:37.529Z,7.76
2022-12-25T03:56:17.297Z,7.77
2022-12-25T03:57:57.059Z,7.76
2022-12-25T03:59:36.828Z,7.74
2022-12-25T04:01:16.599Z,7.73
2022-12-25T04:02:56.365Z,7.7
2022-12-25T04:04:36.178Z,7.69
2022-12-25T04:06:15.908Z,7.67
2022-12-25T04:07:55.713Z,7.68
2022-12-25T04:09:35.433Z,7.66
2022-12-25T04:11:15.211Z,7.65
2022-12-25T04:12:54.964Z,7.61
2022-12-25T04:14:34.748Z,7.62
2022-12-25T04:16:14.503Z,7.59
2022-12-25T04:17:54.276Z,7.59
2022-12-25T04:19:34.040Z,7.58
2022-12-25T04:21:13.811Z,7.55
2022-12-25T04:22:53.576Z,7.54
2022-12-25T04:24:33.336Z,7.51
2022-12-25T04:26:13.112Z,7.53
2022-12-25T04:27:52.881Z,7.48
2022-12-25T04:29:32.640Z,7.5
2022-12-25T04:31:12.483Z,7.47
2022-12-25T04:32:52.184Z,7.44
2022-12-25T04:34:31.950Z,7.43
2022-12-25T04:36:11.722Z,7.41
2022-12-25T04:37:51.479Z,7.42
2022-12-25T04:39:31.254Z,7.4
2022-12-25T04:41:11.041Z,7.39
2022-12-25T04:42:50.766Z,7.36
2022-12-25T04:44:30.558Z,7.37
2022-12-25T04:46:10.306Z,7.33
2022-12-25T04:47:50.074Z,7.31
2022-12-25T04:49:29.834Z,7.29
2022-12-25T04:51:09.594Z,7.28
2022-12-25T04:52:49.378Z,7.26
2022-12-25T04:54:29.149Z,7.27
2022-12-25T04:56:08.906Z,7.24
2022-12-25T04:57:48.758Z,7.22
2022-12-25T04:59:28.422Z,7.2
2022-12-25T05:01:08.258Z,7.19
2022-12-25T05:02:47.969Z,7.17
2022-12-25T05:04:27.713Z,7.18
2022-12-25T05:06:07.473Z,7.14
2022-12-25T05:07:47.254Z,7.13
2022-12-25T05:09:27.019Z,7.13
2022-12-25T05:11:06.785Z,7.1
2022-12-25T05:12:46.556Z,7.11
2022-12-25T05:14:26.295Z,7.09
2022-12-25T05:16:06.082Z,7.06
2022-12-25T05:17:45.837Z,7.06
2022-12-25T05:19:25.599Z,7.03
2022-12-25T05:21:05.364Z,7.04
2022-12-25T05:22:45.133Z,7.02
2022-12-25T05:24:24.889Z,6.97
2022-12-25T05:26:04.681Z,6.98
2022-12-25T05:27:44.417Z,6.95
2022-12-25T05:29:24.197Z,6.93
2022-12-25T05:31:03.940Z,6.94
2022-12-25T05:32:43.708Z,6.9
2022-12-25T05:34:23.541Z,6.9
2022-12-25T05:36:03.242Z,6.9
2022-12-25T05:37:43.011Z,6.87
2022-12-25T05:39:22.823Z,6.85
2022-12-25T05:41:02.536Z,6.84
2022-12-25T05:42:42.289Z,6.84
2022-12-25T05:44:22.071Z,6.82
2022-12-25T05:46:01.848Z,6.8
2022-12-25T05:47:41.595Z,6.78
2022-12-25T05:49:21.360Z,6.76
2022-12-25T05:51:01.124Z,6.75
2022-12-25T05:52:40.896Z,6.74
2022-12-25T05:54:20.684Z,6.72
2022-12-25T05:56:00.431Z,6.69
2022-12-25T05:57:40.195Z,6.68
2022-12-25T05:59:19.958Z,6.67
2022-12-25T06:00:59.700Z,6.64
2022-12-25T06:02:39.477Z,6.63
2022-12-25T06:04:19.247Z,6.63
2022-12-25T06:05:58.999Z,6.6
2022-12-25T06:07:38.750Z,6.57
2022-12-25T06:09:18.544Z,6.58
2022-12-25T06:10:58.290Z,6.56
2022-12-25T06:12:38.083Z,6.56
2022-12-25T06:14:17.842Z,6.53
2022-12-25T06:15:57.585Z,6.52
2022-12-25T06:17:37.355Z,6.51
2022-12-25T06:19:17.099Z,6.49
2022-12-25T06:20:56.894Z,6.47
2022-12-25T06:22:36.650Z,6.46
2022-12-25T06:24:16.411Z,6.45
2022-12-25T06:25:56.176Z,6.42
2022-12-25T06:27:35.958Z,6.43
2022-12-25T06:29:15.768Z,6.39
2022-12-25T06:30:55.450Z,6.38
2022-12-25T06:32:35.274Z,6.38
2022-12-25T06:34:14.978Z,6.35
2022-12-25T06:35:54.794Z,6.34
2022-12-25T06:37:34.575Z,6.32
2022-12-25T06:39:14.364Z,6.32
2022-12-25T06:40:54.041Z,6.32
2022-12-25T06:42:33.827Z,6.28
2022-12-25T06:44:13.675Z,6.27
2022-12-25T06:45:53.326Z,6.22
2022-12-25T06:47:33.129Z,6.27
2022-12-25T06:49:12.853Z,6.26
2022-12-25T06:50:52.624Z,6.27
2022-12-25T06:52:32.381Z,6.27
2022-12-25T06:54:12.213Z,6.31
2022-12-25T06:55:51.915Z,6.3
2022-12-25T06:57:31.680Z,6.29
2022-12-25T06:59:11.471Z,6.29
2022-12-25T07:00:51.239Z,6.3
2022-12-25T07:02:30.982Z,6.32
2022-12-25T07:04:10.734Z,6.34
2022-12-25T07:05:50.523Z,6.33
2022-12-25T07:07:30.378Z,6.34
2022-12-25T07:09:10.041Z,6.36
2022-12-25T07:10:49.792Z,6.35
2022-12-25T07:12:29.642Z,6.35
2022-12-25T07:14:09.336Z,6.39
2022-12-25T07:15:49.090Z,6.37
2022-12-25T07:17:28.864Z,6.34
2022-12-25T07:19:08.644Z,6.35
2022-12-25T07:20:48.407Z,6.37
2022-12-25T07:22:28.209Z,6.35
2022-12-25T07:24:07.937Z,6.36
2022-12-25T07:25:47.699Z,6.36
2022-12-25T07:27:27.517Z,6.38
2022-12-25T07:29:07.250Z,6.37
2022-12-25T07:30:47.048Z,6.38
2022-12-25T07:32:26.920Z,6.4
2022-12-25T07:34:06.553Z,6.38
2022-12-25T07:35:46.323Z,6.4
2022-12-25T07:37:26.096Z,6.37
2022-12-25T07:39:05.858Z,6.39
2022-12-25T07:40:45.685Z,6.4
2022-12-25T07:42:25.380Z,6.39
2022-12-25T07:44:05.148Z,6.38
2022-12-25T07:45:44.912Z,6.39
2022-12-25T07:47:24.695Z,6.37
2022-12-25T07:49:04.445Z,6.4
2022-12-25T07:50:44.229Z,6.39
2022-12-25T07:52:23.998Z,6.38
2022-12-25T07:54:03.828Z,6.4
2022-12-25T07:55:43.624Z,6.39
2022-12-25T07:57:23.360Z,6.41
2022-12-25T07:59:03.080Z,6.39
2022-12-25T08:00:42.853Z,6.38
2022-12-25T08:02:22.693Z,6.4
2022-12-25T08:04:02.477Z,6.43
2022-12-25T08:05:42.201Z,6.4
2022-12-25T08:07:22.005Z,6.41
2022-12-25T08:09:01.695Z,6.44
2022-12-25T08:10:41.465Z,6.44
2022-12-25T08:12:21.280Z,6.44
2022-12-25T08:14:01.003Z,6.46
2022-12-25T08:15:40.772Z,6.43
2022-12-25T08:17:20.538Z,6.43
2022-12-25T08:19:00.382Z,6.45
2022-12-25T08:20:40.078Z,6.45
2022-12-25T08:22:19.967Z,6.43
2022-12-25T08:23:59.757Z,6.43
2022-12-25T08:25:39.484Z,6.43
2022-12-25T08:27:19.273Z,6.45
2022-12-25T08:28:59.046Z,6.45
2022-12-25T08:30:38.862Z,6.46
2022-12-25T08:32:18.556Z,6.47
2022-12-25T08:33:58.366Z,6.48
2022-12-25T08:35:38.153Z,6.46
2022-12-25T08:37:17.799Z,6.44
2022-12-25T08:38:57.620Z,6.48
2022-12-25T08:40:37.360Z,6.49
2022-12-25T08:42:17.147Z,6.45
2022-12-25T08:43:56.985Z,6.48
2022-12-25T08:45:36.664Z,6.49
2022-12-25T08:47:16.433Z,6.51
2022-12-25T08:48:56.312Z,6.5
2022-12-25T08:50:36.051Z,6.54
2022-12-25T08:52:15.734Z,6.6
2022-12-25T08:53:55.509Z,6.7
2022-12-25T08:55:35.249Z,6.73
2022-12-25T08:57:15.071Z,6.78
2022-12-25T08:58:54.800Z,6.84
2022-12-25T09:00:34.563Z,6.93
2022-12-25T09:02:14.368Z,6.98
2022-12-25T09:03:54.270Z,7.01
2022-12-25T09:05:33.927Z,7.08
2022-12-25T09:07:13.733Z,7.13
2022-12-25T09:08:53.526Z,7.17
2022-12-25T09:10:33.221Z,7.2
2022-12-25T09:12:12.957Z,7.29
2022-12-25T09:13:52.783Z,7.32
2022-12-25T09:15:32.571Z,7.34
2022-12-25T09:17:12.349Z,7.38
2022-12-25T09:18:52.065Z,7.41
2022-12-25T09:20:31.818Z,7.46
2022-12-25T09:22:11.656Z,7.48
2022-12-25T09:23:51.351Z,7.5
2022-12-25T09:25:31.150Z,7.53
2022-12-25T09:27:10.913Z,7.58
2022-12-25T09:28:50.776Z,7.6
2022-12-25T09:30:30.423Z,7.66
2022-12-25T09:32:10.200Z,7.67
2022-12-25T09:33:50.023Z,7.71
2022-12-25T09:35:29.779Z,7.74
2022-12-25T09:37:09.617Z,7.77
2022-12-25T09:38:49.359Z,7.82
2022-12-25T09:40:29.046Z,7.79
2022-12-25T09:42:08.818Z,7.81
2022-12-25T09:43:48.591Z,7.88
2022-12-25T09:45:28.358Z,7.89
2022-12-25T09:47:08.165Z,7.84
2022-12-25T09:48:47.906Z,7.87
2022-12-25T09:50:27.687Z,7.88
2022-12-25T09:52:07.478Z,7.92
2022-12-25T09:53:47.202Z,7.93
2022-12-25T09:55:26.983Z,7.96
2022-12-25T09:57:06.796Z,8.01
2022-12-25T09:58:46.569Z,8.03
2022-12-25T10:00:26.328Z,8.1
2022-12-25T10:02:06.051Z,8.08
2022-12-25T10:03:45.887Z,8.1
2022-12-25T10:05:25.641Z,8.08
2022-12-25T10:07:05.371Z,8.1
2022-12-25T10:08:45.141Z,8.16
2022-12-25T10:10:24.966Z,8.18
2022-12-25T10:12:04.775Z,8.26
2022-12-25T10:13:44.448Z,8.28
2022-12-25T10:15:24.232Z,8.35
2022-12-25T10:17:03.990Z,8.38
2022-12-25T10:18:43.758Z,8.37
2022-12-25T10:20:23.526Z,8.41
2022-12-25T10:22:03.321Z,8.38
2022-12-25T10:23:43.078Z,8.39
2022-12-25T10:25:22.898Z,8.45
2022-12-25T10:27:02.662Z,8.47
2022-12-25T10:28:42.518Z,8.5
2022-12-25T10:30:22.185Z,8.52
2022-12-25T10:32:01.989Z,8.56
2022-12-25T10:33:41.767Z,8.57
2022-12-25T10:35:21.475Z,8.58
2022-12-25T10:37:01.298Z,8.56
2022-12-25T10:38:41.094Z,8.58
2022-12-25T10:40:20.773Z,8.6
2022-12-25T10:42:00.652Z,8.62
2022-12-25T10:43:40.388Z,8.64
2022-12-25T10:45:20.115Z,8.68
2022-12-25T10:46:59.849Z,8.71
2022-12-25T10:48:39.685Z,8.7
2022-12-25T10:50:19.459Z,8.76
2022-12-25T10:51:59.245Z,8.75
2022-12-25T10:53:38.937Z,8.82
2022-12-25T10:55:18.702Z,8.83
2022-12-25T10:56:58.542Z,8.85
2022-12-25T10:58:38.281Z,8.88
2022-12-25T11:00:18.029Z,8.91
2022-12-25T11:01:57.772Z,8.91
2022-12-25T11:03:37.548Z,8.97
2022-12-25T11:05:17.385Z,8.96
2022-12-25T11:06:57.112Z,8.97
2022-12-25T11:08:36.926Z,8.99
2022-12-25T11:10:16.650Z,9.02
2022-12-25T11:11:56.419Z,9.01
2022-12-25T11:13:36.186Z,9.04
2022-12-25T11:15:16.026Z,9.03
2022-12-25T11:16:56.030Z,9.1
2022-12-25T11:18:35.539Z,9.1
2022-12-25T11:20:15.320Z,9.12
2022-12-25T11:21:55.205Z,9.14
2022-12-25T11:23:34.899Z,9.16
2022-12-25T11:25:14.574Z,9.2
2022-12-25T11:26:54.436Z,9.21
2022-12-25T11:28:34.235Z,9.21
2022-12-25T11:30:13.991Z,9.18
2022-12-25T11:31:53.657Z,9.22
2022-12-25T11:33:33.479Z,9.26
2022-12-25T11:35:13.224Z,9.24
2022-12-25T11:36:53.047Z,9.25
2022-12-25T11:38:32.739Z,9.26
2022-12-25T11:40:12.663Z,9.31
2022-12-25T11:41:52.310Z,9.29
2022-12-25T11:43:32.040Z,9.31
2022-12-25T11:45:11.816Z,9.32
2022-12-25T11:46:51.616Z,9.34
2022-12-25T11:48:31.387Z,9.32
2022-12-25T11:50:11.143Z,9.35
2022-12-25T11:51:50.903Z,9.34
2022-12-25T11:53:30.661Z,9.37
2022-12-25T11:55:10.548Z,9.38
2022-12-25T11:56:50.208Z,9.35
2022-12-25T11:58:29.997Z,9.38
2022-12-25T12:00:09.828Z,9.38
2022-12-25T12:01:49.536Z,9.39
2022-12-25T12:03:29.330Z,9.39
2022-12-25T12:05:09.126Z,9.39
2022-12-25T12:06:48.862Z,9.46
2022-12-25T12:08:28.636Z,9.45
2022-12-25T12:10:08.363Z,9.46
2022-12-25T12:11:48.155Z,9.49
2022-12-25T12:13:27.908Z,9.53
2022-12-25T12:15:07.686Z,9.54
2022-12-25T12:16:47.585Z,9.56
2022-12-25T12:18:27.240Z,9.57
2022-12-25T12:20:06.989Z,9.57
2022-12-25T12:21:46.800Z,9.55
2022-12-25T12:23:26.532Z,9.54
2022-12-25T12:25:06.374Z,9.58
2022-12-25T12:26:46.111Z,9.6
2022-12-25T12:28:25.893Z,9.63
2022-12-25T12:30:05.603Z,9.6
2022-12-25T12:31:45.490Z,9.62
2022-12-25T12:33:25.161Z,9.67
2022-12-25T12:35:04.918Z,9.68
2022-12-25T12:36:44.730Z,9.72
2022-12-25T12:38:24.506Z,9.71
2022-12-25T12:40:04.263Z,9.72
2022-12-25T12:41:44.005Z,9.76
2022-12-25T12:43:23.788Z,9.76
2022-12-25T12:45:03.547Z,9.72
2022-12-25T12:46:43.316Z,9.72
2022-12-25T12:48:23.091Z,9.67
2022-12-25T12:50:02.839Z,9.68
2022-12-25T12:51:42.628Z,9.6
2022-12-25T12:53:22.448Z,9.56
2022-12-25T12:55:02.230Z,9.52
2022-12-25T12:56:41.989Z,9.49
2022-12-25T12:58:21.703Z,9.43
2022-12-25T13:00:01.463Z,9.41
2022-12-25T13:01:41.265Z,9.39
2022-12-25T13:03:21.066Z,9.39
2022-12-25T13:05:00.778Z,9.37
2022-12-25T13:06:40.553Z,9.34
2022-12-25T13:08:20.341Z,9.28
2022-12-25T13:10:00.151Z,9.26
2022-12-25T13:11:39.880Z,9.26
2022-12-25T13:13:19.652Z,9.22
2022-12-25T13:14:59.414Z,9.22
2022-12-25T13:16:39.298Z,9.21
2022-12-25T13:18:18.997Z,9.18
2022-12-25T13:19:58.750Z,9.14
2022-12-25T13:21:38.486Z,9.14
2022-12-25T13:23:18.256Z,9.12
2022-12-25T13:24:58.069Z,9.13
2022-12-25T13:26:37.803Z,9.08
2022-12-25T13:28:17.566Z,9.1
2022-12-25T13:29:57.413Z,9.06
2022-12-25T13:31:37.167Z,9.03
2022-12-25T13:33:16.872Z,9.06
2022-12-25T13:34:56.698Z,9.02
2022-12-25T13:36:36.473Z,9
2022-12-25T13:38:16.195Z,9
2022-12-25T13:39:55.960Z,8.96
2022-12-25T13:41:35.736Z,8.97
2022-12-25T13:43:15.578Z,8.93
2022-12-25T13:44:55.309Z,8.93
2022-12-25T13:46:35.117Z,8.92
2022-12-25T13:48:14.808Z,8.92
2022-12-25T13:49:54.577Z,8.89
2022-12-25T13:51:34.357Z,8.87
2022-12-25T13:53:14.132Z,8.89
2022-12-25T13:54:53.891Z,8.85
2022-12-25T13:56:33.650Z,8.85
2022-12-25T13:58:13.491Z,8.82
2022-12-25T13:59:53.213Z,8.85
2022-12-25T14:01:32.990Z,8.83
2022-12-25T14:03:12.733Z,8.84
2022-12-25T14:04:52.564Z,8.82
2022-12-25T14:06:32.344Z,8.83
2022-12-25T14:08:12.041Z,8.82
2022-12-25T14:09:51.803Z,8.8
2022-12-25T14:11:31.574Z,8.8
2022-12-25T14:13:11.349Z,8.79
2022-12-25T14:14:51.102Z,8.78
2022-12-25T14:16:30.888Z,8.77
2022-12-25T14:18:10.651Z,8.78
2022-12-25T14:19:50.414Z,8.77
2022-12-25T14:21:30.340Z,8.78
2022-12-25T14:23:09.955Z,8.78
2022-12-25T14:24:49.722Z,8.75
2022-12-25T14:26:29.572Z,8.81
2022-12-25T14:28:09.248Z,8.76
2022-12-25T14:29:49.042Z,8.76
2022-12-25T14:31:28.851Z,8.75
2022-12-25T14:33:08.561Z,8.77
2022-12-25T14:34:48.352Z,8.74
2022-12-25T14:36:28.119Z,8.76
2022-12-25T14:38:07.845Z,8.75
2022-12-25T14:39:47.812Z,8.74
2022-12-25T14:41:27.430Z,8.77
2022-12-25T14:43:07.223Z,8.76
2022-12-25T14:44:47.028Z,8.72
2022-12-25T14:46:26.684Z,8.75
2022-12-25T14:48:06.474Z,8.75
2022-12-25T14:49:46.368Z,8.75
2022-12-25T14:51:26.150Z,8.77
2022-12-25T14:53:05.855Z,8.75
2022-12-25T14:54:45.545Z,8.72
2022-12-25T14:56:25.494Z,8.77
2022-12-25T14:58:05.095Z,8.74
2022-12-25T14:59:44.996Z,8.76
2022-12-25T15:01:24.587Z,8.72
2022-12-25T15:03:04.430Z,8.74
2022-12-25T15:04:44.134Z,8.76
2022-12-25T15:06:23.969Z,8.76
2022-12-25T15:08:03.674Z,8.75
2022-12-25T15:09:43.565Z,8.75
2022-12-25T15:11:23.254Z,8.77
2022-12-25T15:13:02.969Z,8.77
2022-12-25T15:14:42.865Z,8.76
2022-12-25T15:16:22.578Z,8.77
2022-12-25T15:18:02.338Z,8.8
2022-12-25T15:19:42.040Z,8.79
2022-12-25T15:21:21.844Z,8.78
2022-12-25T15:23:01.583Z,8.77
2022-12-25T15:24:41.420Z,8.75
2022-12-25T15:26:21.150Z,8.72
2022-12-25T15:28:00.937Z,8.68
2022-12-25T15:29:40.692Z,8.67
2022-12-25T15:31:20.420Z,8.64
2022-12-25T15:33:00.177Z,8.62
2022-12-25T15:34:39.945Z,8.62
2022-12-25T15:36:19.710Z,8.59
2022-12-25T15:37:59.617Z,8.57
2022-12-25T15:39:39.402Z,8.58
2022-12-25T15:41:19.007Z,8.55
2022-12-25T15:42:58.847Z,8.55
2022-12-25T15:44:38.539Z,8.54
2022-12-25T15:46:18.368Z,8.53
2022-12-25T15:47:58.139Z,8.52
2022-12-25T15:49:37.890Z,8.51
2022-12-25T15:51:17.664Z,8.49
2022-12-25T15:52:57.442Z,8.47
2022-12-25T15:54:37.280Z,8.45
2022-12-25T15:56:16.932Z,8.45
2022-12-25T15:57:56.779Z,8.45
2022-12-25T15:59:36.465Z,8.43
2022-12-25T16:01:16.347Z,8.43
2022-12-25T16:02:56.061Z,8.42
2022-12-25T16:04:35.876Z,8.41
2022-12-25T16:06:15.540Z,8.41
2022-12-25T16:07:55.293Z,8.42
2022-12-25T16:09:35.040Z,8.42
2022-12-25T16:11:14.823Z,8.41
2022-12-25T16:12:54.661Z,8.39
2022-12-25T16:14:34.364Z,8.41
2022-12-25T16:16:14.232Z,8.42
2022-12-25T16:17:53.880Z,8.39
2022-12-25T16:19:33.739Z,8.39
2022-12-25T16:21:13.485Z,8.39
2022-12-25T16:22:53.194Z,8.37
2022-12-25T16:24:32.983Z,8.39
2022-12-25T16:26:12.859Z,8.38
2022-12-25T16:27:52.565Z,8.39
2022-12-25T16:29:32.259Z,8.39
2022-12-25T16:31:12.062Z,8.38
2022-12-25T16:32:51.799Z,8.37
2022-12-25T16:34:31.597Z,8.35
2022-12-25T16:36:11.347Z,8.39
2022-12-25T16:37:51.144Z,8.38
2022-12-25T16:39:30.911Z,8.38
2022-12-25T16:41:10.687Z,8.38
2022-12-25T16:42:50.393Z,8.38
2022-12-25T16:44:30.193Z,8.39
2022-12-25T16:46:10.119Z,8.39
2022-12-25T16:47:49.694Z,8.38
2022-12-25T16:49:29.540Z,8.37
2022-12-25T16:51:09.260Z,8.37
2022-12-25T16:52:48.993Z,8.39
2022-12-25T16:54:28.768Z,8.39
2022-12-25T16:56:08.533Z,8.38
2022-12-25T16:57:48.323Z,8.38
2022-12-25T16:59:28.072Z,8.39
2022-12-25T17:01:07.831Z,8.39
2022-12-25T17:02:47.608Z,8.41
2022-12-25T17:04:27.398Z,8.42
2022-12-25T17:06:07.155Z,8.41
2022-12-25T17:07:46.920Z,8.41
2022-12-25T17:09:26.699Z,8.42
2022-12-25T17:11:06.435Z,8.39
2022-12-25T17:12:46.204Z,8.43
2022-12-25T17:14:25.982Z,8.42
2022-12-25T17:16:05.740Z,8.43
2022-12-25T17:17:45.503Z,8.43
2022-12-25T17:19:25.285Z,8.45
2022-12-25T17:21:05.058Z,8.43
2022-12-25T17:22:44.824Z,8.46
2022-12-25T17:24:24.582Z,8.45
2022-12-25T17:26:04.358Z,8.45
2022-12-25T17:27:44.121Z,8.46
2022-12-25T17:29:23.938Z,8.47
2022-12-25T17:31:03.644Z,8.49
2022-12-25T17:32:43.466Z,8.47
2022-12-25T17:34:23.181Z,8.47
2022-12-25T17:36:02.951Z,8.47
2022-12-25T17:37:42.721Z,8.5
2022-12-25T17:39:22.543Z,8.49
2022-12-25T17:41:02.327Z,8.5
2022-12-25T17:42:42.029Z,8.5
2022-12-25T17:44:21.788Z,8.52
2022-12-25T17:46:01.607Z,8.52
2022-12-25T17:47:41.320Z,8.54
2022-12-25T17:49:21.215Z,8.54
2022-12-25T17:51:00.877Z,8.54
2022-12-25T17:52:40.656Z,8.54
2022-12-25T17:54:20.462Z,8.55
2022-12-25T17:56:00.168Z,8.54
2022-12-25T17:57:39.937Z,8.57
2022-12-25T17:59:19.725Z,8.57
2022-12-25T18:00:59.459Z,8.57
2022-12-25T18:02:39.226Z,8.57
2022-12-25T18:04:19.000Z,8.59
2022-12-25T18:05:58.766Z,8.6
2022-12-25T18:07:38.533Z,8.6
2022-12-25T18:09:18.330Z,8.6
2022-12-25T18:10:58.065Z,8.63
2022-12-25T18:12:37.828Z,8.62
2022-12-25T18:14:17.589Z,8.64
2022-12-25T18:15:57.359Z,8.64
2022-12-25T18:17:37.142Z,8.64
2022-12-25T18:19:16.927Z,8.64
2022-12-25T18:20:56.658Z,8.64
2022-12-25T18:22:36.488Z,8.66
2022-12-25T18:24:16.212Z,8.66
2022-12-25T18:25:55.981Z,8.68
2022-12-25T18:27:35.728Z,8.68
2022-12-25T18:29:15.504Z,8.68
2022-12-25T18:30:55.260Z,8.7
2022-12-25T18:32:35.044Z,8.71
2022-12-25T18:34:14.822Z,8.71
2022-12-25T18:35:54.653Z,8.72
2022-12-25T18:37:34.353Z,8.72
2022-12-25T18:39:14.107Z,8.72
2022-12-25T18:40:53.876Z,8.72
2022-12-25T18:42:33.638Z,8.74
2022-12-25T18:44:13.399Z,8.74
2022-12-25T18:45:53.197Z,8.76
2022-12-25T18:47:33.013Z,8.76
2022-12-25T18:49:12.707Z,8.77
2022-12-25T18:50:52.475Z,8.78
2022-12-25T18:52:32.254Z,8.8
2022-12-25T18:54:12.007Z,8.79
2022-12-25T18:55:51.773Z,8.81
2022-12-25T18:57:31.562Z,8.82
2022-12-25T18:59:11.305Z,8.82
2022-12-25T19:00:51.103Z,8.84
2022-12-25T19:02:30.900Z,8.84
2022-12-25T19:04:10.625Z,8.87
2022-12-25T19:05:50.383Z,8.88
2022-12-25T19:07:30.145Z,8.85
2022-12-25T19:09:09.936Z,8.88
2022-12-25T19:10:49.705Z,8.88
2022-12-25T19:12:29.458Z,8.88
2022-12-25T19:14:09.278Z,8.92
2022-12-25T19:15:49.100Z,8.89
2022-12-25T19:17:28.885Z,8.92
2022-12-25T19:19:08.531Z,8.92
2022-12-25T19:20:48.285Z,8.93
2022-12-25T19:22:28.155Z,8.93
2022-12-25T19:24:07.884Z,8.96
2022-12-25T19:25:47.590Z,8.96
2022-12-25T19:27:27.425Z,8.97
2022-12-25T19:29:07.127Z,8.97
2022-12-25T19:30:46.893Z,8.97
2022-12-25T19:32:26.656Z,8.97
2022-12-25T19:34:06.416Z,9
2022-12-25T19:35:46.204Z,8.99
2022-12-25T19:37:25.963Z,9.01
2022-12-25T19:39:05.742Z,9.03
2022-12-25T19:40:45.542Z,9.03
2022-12-25T19:42:25.291Z,9.03
2022-12-25T19:44:05.035Z,9.03
2022-12-25T19:45:44.788Z,9.05
2022-12-25T19:47:24.581Z,9.06
2022-12-25T19:49:04.490Z,9.05
2022-12-25T19:50:44.096Z,9.08
2022-12-25T19:52:23.876Z,9.07
2022-12-25T19:54:03.723Z,9.09
2022-12-25T19:55:43.394Z,9.1
2022-12-25T19:57:23.199Z,9.12
2022-12-25T19:59:02.960Z,9.1
2022-12-25T20:00:42.710Z,9.14
2022-12-25T20:02:22.467Z,9.12
2022-12-25T20:04:02.312Z,9.13
2022-12-25T20:05:42.053Z,9.14
2022-12-25T20:07:21.771Z,9.17
2022-12-25T20:09:01.547Z,9.17
2022-12-25T20:10:41.314Z,9.18
2022-12-25T20:12:21.092Z,9.18
2022-12-25T20:14:00.853Z,9.18
2022-12-25T20:15:40.710Z,9.21
2022-12-25T20:17:20.460Z,9.2
2022-12-25T20:19:00.157Z,9.22
2022-12-25T20:20:39.966Z,9.22
2022-12-25T20:22:19.689Z,9.25
2022-12-25T20:23:59.517Z,9.24
2022-12-25T20:25:39.213Z,9.25
2022-12-25T20:27:18.983Z,9.27
2022-12-25T20:28:58.742Z,9.28
2022-12-25T20:30:38.595Z,9.29
2022-12-25T20:32:18.319Z,9.29
2022-12-25T20:33:58.112Z,9.28
2022-12-25T20:35:37.886Z,9.32
2022-12-25T20:37:17.585Z,9.3
2022-12-25T20:38:57.342Z,9.32
2022-12-25T20:40:37.124Z,9.33
2022-12-25T20:42:17.019Z,9.35
2022-12-25T20:43:56.673Z,9.35
2022-12-25T20:45:36.516Z,9.38
2022-12-25T20:47:16.344Z,9.38
2022-12-25T20:48:56.028Z,9.37
2022-12-25T20:50:35.713Z,9.38
2022-12-25T20:52:15.724Z,9.41
2022-12-25T20:53:55.312Z,9.42
2022-12-25T20:55:35.058Z,9.43
2022-12-25T20:57:14.936Z,9.43
2022-12-25T20:58:54.557Z,9.43
2022-12-25T21:00:34.341Z,9.46
2022-12-25T21:02:14.158Z,9.47
2022-12-25T21:03:53.925Z,9.47
2022-12-25T21:05:33.615Z,9.46
2022-12-25T21:07:13.460Z,9.47
2022-12-25T21:08:53.184Z,9.5
2022-12-25T21:10:32.970Z,9.52
2022-12-25T21:12:12.794Z,9.5
2022-12-25T21:13:52.508Z,9.51
2022-12-25T21:15:32.238Z,9.52
2022-12-25T21:17:12.075Z,9.56
2022-12-25T21:18:51.852Z,9.55
2022-12-25T21:20:31.531Z,9.58
2022-12-25T21:22:11.366Z,9.56
2022-12-25T21:23:51.079Z,9.57
2022-12-25T21:25:30.832Z,9.59
2022-12-25T21:27:10.599Z,9.6
2022-12-25T21:28:50.368Z,9.62
2022-12-25T21:30:30.132Z,9.63
2022-12-25T21:32:09.924Z,9.62
2022-12-25T21:33:49.669Z,9.63
2022-12-25T21:35:29.435Z,9.64
2022-12-25T21:37:09.204Z,9.64
2022-12-25T21:38:48.972Z,9.68
2022-12-25T21:40:28.839Z,9.67
2022-12-25T21:42:08.510Z,9.68
2022-12-25T21:43:48.269Z,9.68
2022-12-25T21:45:28.052Z,9.7
2022-12-25T21:47:07.843Z,9.7
2022-12-25T21:48:47.609Z,9.72
2022-12-25T21:50:27.366Z,9.74
2022-12-25T21:52:07.112Z,9.72
2022-12-25T21:53:46.883Z,9.74
2022-12-25T21:55:26.633Z,9.76
2022-12-25T21:57:06.429Z,9.77
2022-12-25T21:58:46.188Z,9.79
2022-12-25T22:00:25.952Z,9.77
2022-12-25T22:02:05.719Z,9.79
2022-12-25T22:03:45.505Z,9.82
2022-12-25T22:05:25.258Z,9.82
2022-12-25T22:07:05.082Z,9.82
2022-12-25T22:08:44.784Z,9.82
2022-12-25T22:10:24.557Z,9.84
2022-12-25T22:12:04.318Z,9.85